MST,Max TemperatureF,Mean TemperatureF,Min TemperatureF,Max Dew PointF,MeanDew PointF,Min DewpointF,Max Humidity, Mean Humidity, Min Humidity, Max Sea Level PressureIn, Mean Sea Level PressureIn, Min Sea Level PressureIn, Max VisibilityMiles, Mean VisibilityMiles, Min VisibilityMiles, Max Wind SpeedMPH, Mean Wind SpeedMPH, Max Gust SpeedMPH,PrecipitationIn, CloudCover, Events, WindDirDegrees
2014-1-1,32,18,3,30,16,0,96,80,55,30.36,30.24,30.07,10,9,0,18,7,20,0.00,5,Snow,313
2014-1-2,38,19,0,18,9,-4,92,69,38,30.37,30.30,30.20,10,10,10,12,3,,0.00,2,,9
2014-1-3,40,23,6,25,13,2,86,65,33,30.19,29.96,29.79,10,10,1,21,3,31,0.00,4,Snow,244
2014-1-4,29,17,5,29,13,2,96,80,60,30.04,29.91,29.77,10,9,1,22,8,31,0.00,7,Snow,310
2014-1-5,14,0,-13,9,0,-18,86,76,56,30.32,30.19,30.03,10,9,2,15,4,24,0.00,5,Snow,268
2014-1-6,27,6,-15,5,-4,-21,83,66,33,30.42,30.35,30.27,10,10,10,13,4,20,0.00,0,,133
2014-1-7,33,21,9,26,14,2,96,73,43,30.25,30.13,30.04,10,8,1,12,2,17,0.00,5,Snow,259
2014-1-8,29,18,8,27,20,6,93,88,74,30.11,30.07,30.04,10,9,1,9,3,,0.00,7,Snow,236
2014-1-9,32,24,15,29,22,8,94,82,63,30.06,29.92,29.81,10,8,0,28,8,29,0.00,8,Snow,235
2014-1-10,32,22,13,23,17,6,79,71,64,30.09,29.91,29.83,10,9,4,26,12,34,0.00,6,Snow,240
2014-1-11,41,36,31,26,25,22,73,61,53,30.18,30.02,29.77,10,10,10,28,14,36,0.00,5,,209
2014-1-12,35,26,17,28,20,12,93,72,62,30.15,29.91,29.71,10,9,0,29,12,38,0.00,8,Snow,248
2014-1-13,33,28,23,23,20,15,74,67,62,30.23,30.19,30.14,10,10,7,26,16,37,0.00,8,,225
2014-1-14,36,24,12,22,18,9,90,73,54,30.50,30.40,30.22,10,10,10,26,12,34,0.00,4,,268
2014-1-15,38,22,5,19,12,2,91,71,44,30.45,30.38,30.29,10,10,10,17,3,22,0.00,0,,195
2014-1-16,37,20,4,18,9,0,85,72,42,30.40,30.36,30.33,10,10,10,9,3,,0.00,0,,98
2014-1-17,38,20,3,18,9,0,89,67,33,30.36,30.29,30.20,10,10,10,16,5,23,0.00,0,,128
2014-1-18,37,23,9,20,10,4,81,68,43,30.41,30.34,30.28,10,10,10,10,3,,0.00,0,,104
2014-1-19,41,22,3,21,10,-1,87,70,37,30.33,30.27,30.21,10,10,10,10,2,,0.00,0,,293
2014-1-20,37,23,9,19,13,5,85,71,45,30.52,30.39,30.22,10,10,10,10,3,,0.00,1,,91
2014-1-21,39,20,0,16,7,-4,88,66,33,30.51,30.41,30.30,10,10,10,14,3,17,0.00,0,,115
2014-1-22,38,20,1,24,10,-3,84,67,41,30.28,30.12,30.00,10,10,10,22,3,26,0.00,2,,52
2014-1-23,28,14,0,20,5,-7,75,59,29,30.50,30.36,30.08,10,10,10,29,12,33,0.00,0,,19
2014-1-24,34,15,-4,9,0,-11,76,58,29,30.55,30.48,30.42,10,10,10,13,3,,0.00,0,,100
2014-1-25,40,22,4,14,6,-2,77,59,27,30.42,30.28,30.16,10,10,10,10,2,,0.00,0,,73
2014-1-26,39,22,6,24,14,2,90,71,41,30.16,30.05,29.98,10,10,10,14,4,22,0.00,2,,206
2014-1-27,27,16,5,19,12,-7,89,76,45,30.13,30.02,29.96,10,10,2,18,4,,0.00,7,Snow,322
2014-1-28,25,8,-10,3,-4,-16,79,57,30,30.27,30.20,30.13,10,10,10,15,3,20,0.00,1,,140
2014-1-29,38,21,4,32,17,-3,98,67,46,30.17,29.95,29.65,10,8,0,28,7,44,0.00,7,Rain-Snow,216
2014-1-30,34,28,20,32,25,18,96,80,60,29.78,29.73,29.70,10,9,1,22,10,29,0.00,8,Snow,228
2014-1-31,28,16,5,22,16,3,96,87,69,29.78,29.74,29.68,10,9,0,7,1,,0.00,6,Fog-Snow,66